Time;durP1;ratioP1;P1;durP2;ratioP2;P2;SDS_P1;SDS_P2;PMS_P1;PMS_P2;Temp;Humidity;BMP_temperature;BMP_pressure;BME280_temperature;BME280_humidity;BME280_pressure;Samples;Min_cycle;Max_cycle;Signal;HPM_P1;HPM_P2
2022/04/30 00:00:58;;;;;;;10.88;7.70;;;13.10;99.90;;;;;;5061965;28;20029;-51
2022/04/30 00:03:28;;;;;;;15.90;11.68;;;13.00;99.90;;;;;;5062680;28;20102;-52
2022/04/30 00:05:55;;;;;;;16.75;12.90;;;12.80;99.90;;;;;;5069475;28;20059;-50
2022/04/30 00:08:21;;;;;;;9.48;7.63;;;12.90;99.90;;;;;;5063161;28;20029;-46
2022/04/30 00:10:48;;;;;;;9.93;7.97;;;13.00;99.90;;;;;;5060374;28;20026;-48
2022/04/30 00:13:14;;;;;;;11.25;8.30;;;13.00;99.90;;;;;;5034451;28;20108;-49
2022/04/30 00:15:40;;;;;;;10.77;8.68;;;12.90;99.90;;;;;;5060401;28;20043;-46
2022/04/30 00:18:06;;;;;;;13.25;8.40;;;13.00;99.90;;;;;;5064926;28;20086;-48
2022/04/30 00:20:33;;;;;;;11.38;9.32;;;12.90;99.90;;;;;;5058861;28;20104;-50
2022/04/30 00:22:58;;;;;;;12.32;9.43;;;12.60;99.90;;;;;;5056150;28;20036;-49
2022/04/30 00:25:24;;;;;;;11.13;9.30;;;12.60;99.90;;;;;;5061043;28;20047;-48
2022/04/30 00:27:51;;;;;;;12.00;9.43;;;12.60;99.90;;;;;;5063496;28;20050;-50
2022/04/30 00:30:17;;;;;;;14.60;10.05;;;12.60;99.90;;;;;;5088477;28;20032;-48
2022/04/30 00:32:43;;;;;;;11.48;9.73;;;12.70;99.90;;;;;;5064418;28;20013;-44
2022/04/30 00:35:09;;;;;;;13.57;10.25;;;12.70;99.90;;;;;;5068849;28;20108;-49
2022/04/30 00:37:35;;;;;;;13.27;11.15;;;12.60;99.90;;;;;;5037989;28;20124;-50
2022/04/30 00:40:02;;;;;;;12.80;11.18;;;12.40;99.90;;;;;;5063823;28;20036;-50
2022/04/30 00:42:28;;;;;;;14.20;10.60;;;12.20;99.90;;;;;;5061883;28;20044;-47
2022/04/30 00:44:54;;;;;;;14.70;10.50;;;12.10;99.90;;;;;;5067591;28;20067;-47
2022/04/30 00:47:20;;;;;;;13.07;10.43;;;12.20;99.90;;;;;;5056105;28;20054;-49
2022/04/30 00:49:46;;;;;;;12.77;10.13;;;12.00;99.90;;;;;;5063744;28;20028;-48
2022/04/30 00:52:17;;;;;;;12.52;10.20;;;11.90;99.90;;;;;;5065091;28;20052;-47
2022/04/30 00:54:52;;;;;;;13.27;9.93;;;12.00;99.90;;;;;;5063854;28;20028;-51
2022/04/30 00:57:23;;;;;;;13.90;10.70;;;12.20;99.90;;;;;;5056400;28;20043;-46
2022/04/30 01:00:01;;;;;;;17.45;10.93;;;12.30;99.90;;;;;;5057974;28;20111;-45
2022/04/30 01:02:28;;;;;;;14.48;10.43;;;12.40;99.90;;;;;;5071609;28;20365;-50
2022/04/30 01:04:58;;;;;;;15.55;11.77;;;12.40;99.90;;;;;;5062279;28;20584;-47
2022/04/30 01:07:24;;;;;;;16.30;11.27;;;12.30;99.90;;;;;;5067057;28;20032;-53
2022/04/30 01:09:52;;;;;;;10.85;9.63;;;12.30;99.90;;;;;;5069760;28;20036;-47
2022/04/30 01:12:19;;;;;;;12.00;9.50;;;12.30;99.90;;;;;;5061479;28;20051;-47
2022/04/30 01:14:46;;;;;;;19.17;10.48;;;12.30;99.90;;;;;;5057980;28;20051;-47
2022/04/30 01:17:12;;;;;;;12.23;10.15;;;12.30;99.90;;;;;;5071534;28;20020;-46
2022/04/30 01:19:40;;;;;;;11.52;9.45;;;12.20;99.90;;;;;;5064742;28;20021;-47
2022/04/30 01:22:34;;;;;;;12.45;10.48;;;12.20;99.90;;;;;;5063787;28;20033;-47
2022/04/30 01:25:02;;;;;;;12.50;9.93;;;12.30;99.90;;;;;;5056249;28;20040;-52
2022/04/30 01:27:29;;;;;;;11.48;9.45;;;12.30;99.90;;;;;;5053164;28;20480;-47
2022/04/30 01:29:59;;;;;;;10.75;8.85;;;12.20;99.90;;;;;;5063802;28;20448;-50
2022/04/30 01:38:02;;;;;;;11.98;9.10;;;;;;;;;;5067160;28;20429;-50
2022/04/30 01:40:29;;;;;;;10.85;8.48;;;;;;;;;;5065331;28;20033;-48
2022/04/30 01:42:58;;;;;;;11.20;8.93;;;;;;;;;;5065581;28;20108;-49
2022/04/30 01:45:26;;;;;;;10.85;8.90;;;12.20;99.90;;;;;;5037205;28;20060;-45
2022/04/30 01:47:52;;;;;;;11.18;9.18;;;12.20;99.90;;;;;;5060478;28;20036;-48
2022/04/30 01:50:18;;;;;;;14.48;11.25;;;12.20;99.90;;;;;;5069537;28;20028;-49
2022/04/30 01:52:44;;;;;;;14.32;9.73;;;12.00;99.90;;;;;;5068440;28;20579;-45
2022/04/30 01:55:11;;;;;;;13.32;10.02;;;11.80;99.90;;;;;;5056936;28;20043;-51
2022/04/30 01:57:40;;;;;;;12.68;9.48;;;11.80;99.90;;;;;;5053550;28;20032;-52
2022/04/30 02:00:09;;;;;;;12.27;9.85;;;11.80;99.90;;;;;;5056721;28;20025;-47
2022/04/30 02:02:36;;;;;;;12.18;9.20;;;11.90;99.90;;;;;;5063795;28;20064;-49
2022/04/30 02:05:05;;;;;;;11.48;9.60;;;11.90;99.90;;;;;;5033677;28;20048;-51
2022/04/30 02:07:34;;;;;;;11.93;10.43;;;11.70;99.90;;;;;;5056917;28;20032;-47
2022/04/30 02:10:01;;;;;;;12.90;9.70;;;11.60;99.90;;;;;;5060550;28;20044;-53
2022/04/30 02:12:31;;;;;;;13.15;10.57;;;11.30;99.90;;;;;;5060012;28;20028;-51
2022/04/30 02:14:58;;;;;;;12.75;9.77;;;11.40;99.90;;;;;;5064133;28;20032;-50
2022/04/30 02:17:26;;;;;;;10.77;8.80;;;11.50;99.90;;;;;;5059813;28;20025;-49
2022/04/30 02:22:40;;;;;;;11.40;9.80;;;11.50;99.90;;;;;;5054316;28;20082;-50
2022/04/30 02:25:11;;;;;;;13.63;9.98;;;11.50;99.90;;;;;;5063976;28;20400;-49
2022/04/30 02:27:43;;;;;;;11.35;9.20;;;11.50;99.90;;;;;;5061198;28;20036;-52
2022/04/30 02:30:11;;;;;;;13.45;10.27;;;11.50;99.90;;;;;;5056587;28;20037;-48
2022/04/30 02:32:41;;;;;;;12.57;9.55;;;11.50;99.90;;;;;;5018916;28;20040;-46
2022/04/30 02:35:09;;;;;;;11.55;8.95;;;11.50;99.90;;;;;;5064381;28;20079;-45
2022/04/30 02:37:35;;;;;;;16.60;12.52;;;11.50;99.90;;;;;;5061048;28;20384;-48
2022/04/30 02:40:02;;;;;;;17.65;11.57;;;11.30;99.90;;;;;;5064824;28;20025;-47
2022/04/30 02:42:28;;;;;;;13.00;10.52;;;11.20;99.90;;;;;;5063204;28;20104;-48
2022/04/30 02:44:54;;;;;;;16.88;11.93;;;11.00;99.90;;;;;;5067038;28;20115;-47
2022/04/30 02:47:20;;;;;;;12.77;10.95;;;10.80;99.90;;;;;;5020499;28;20033;-51
2022/04/30 02:49:45;;;;;;;12.85;11.18;;;11.00;99.90;;;;;;5057935;28;20029;-51
2022/04/30 02:52:11;;;;;;;11.30;9.80;;;11.20;99.90;;;;;;5063822;28;20032;-49
2022/04/30 02:54:37;;;;;;;21.58;16.15;;;11.20;99.90;;;;;;5062972;28;20029;-51
2022/04/30 02:57:03;;;;;;;14.98;11.70;;;11.10;99.90;;;;;;5067500;28;20028;-49
2022/04/30 03:02:13;;;;;;;26.40;16.92;;;10.90;99.90;;;;;;5054683;28;20039;-52
2022/04/30 03:04:39;;;;;;;16.88;11.00;;;10.70;99.90;;;;;;5069940;28;20036;-48
2022/04/30 03:07:05;;;;;;;12.93;10.48;;;10.60;99.90;;;;;;5060889;28;20484;-47
2022/04/30 03:09:31;;;;;;;11.88;9.52;;;10.50;99.90;;;;;;5056464;28;20040;-46
2022/04/30 03:11:58;;;;;;;11.80;9.77;;;10.30;99.90;;;;;;5057973;28;20057;-47
2022/04/30 03:14:24;;;;;;;12.45;10.13;;;10.10;99.90;;;;;;5048016;28;20075;-48
2022/04/30 03:22:18;;;;;;;15.13;11.60;;;9.90;99.90;;;;;;5067823;28;20094;-48
2022/04/30 03:24:44;;;;;;;14.80;10.65;;;9.80;99.90;;;;;;5061489;28;20040;-47
2022/04/30 03:27:11;;;;;;;13.70;10.15;;;;;;;;;;5061069;28;20024;-45
2022/04/30 03:29:37;;;;;;;12.65;9.60;;;;;;;;;;5061211;28;20033;-52
2022/04/30 03:32:03;;;;;;;14.07;10.13;;;9.40;99.90;;;;;;5068692;28;20167;-50
2022/04/30 03:34:32;;;;;;;16.10;10.77;;;9.20;99.90;;;;;;4997275;28;20128;-45
2022/04/30 03:36:59;;;;;;;14.07;10.30;;;9.00;99.90;;;;;;5057014;28;20040;-45
2022/04/30 03:39:24;;;;;;;12.60;9.20;;;9.00;99.90;;;;;;5059824;28;20025;-47
2022/04/30 03:41:50;;;;;;;15.27;10.15;;;8.70;99.90;;;;;;5065072;28;20072;-48
2022/04/30 03:44:16;;;;;;;11.52;9.60;;;8.60;99.90;;;;;;5056321;28;20456;-47
2022/04/30 03:46:42;;;;;;;11.90;9.07;;;8.90;99.90;;;;;;5051087;28;20083;-48
2022/04/30 03:49:07;;;;;;;10.57;9.15;;;9.00;99.90;;;;;;5058547;28;20095;-48
2022/04/30 03:51:33;;;;;;;11.98;9.82;;;9.10;99.90;;;;;;5060705;28;20025;-51
2022/04/30 03:53:59;;;;;;;13.10;9.88;;;9.00;99.90;;;;;;5059243;28;20162;-48
2022/04/30 03:56:25;;;;;;;11.32;9.27;;;9.10;99.90;;;;;;5062782;28;20020;-45
2022/04/30 03:58:51;;;;;;;15.20;9.75;;;9.20;99.90;;;;;;5060616;28;20031;-52
2022/04/30 04:01:21;;;;;;;14.75;10.02;;;9.20;99.90;;;;;;5059048;28;20094;-51
2022/04/30 04:03:50;;;;;;;11.43;9.13;;;9.20;99.90;;;;;;5063876;28;20028;-52
2022/04/30 04:06:19;;;;;;;15.38;10.02;;;9.20;99.90;;;;;;5062457;28;20049;-51
2022/04/30 04:08:51;;;;;;;13.32;10.38;;;8.80;99.90;;;;;;5059828;28;20056;-51
2022/04/30 04:11:17;;;;;;;16.77;12.40;;;8.80;99.90;;;;;;5059252;28;20040;-51
2022/04/30 04:19:12;;;;;;;17.83;11.48;;;9.10;99.90;;;;;;5051471;28;20074;-46
2022/04/30 04:21:38;;;;;;;15.98;11.55;;;;;;;;;;5052092;28;20029;-48
2022/04/30 04:26:49;;;;;;;16.73;11.95;;;10.40;99.90;;;;;;5049935;28;20396;-45
2022/04/30 04:29:16;;;;;;;14.73;11.38;;;;;;;;;;5060102;28;20037;-51
2022/04/30 04:31:44;;;;;;;20.52;13.13;;;11.10;99.90;;;;;;5055992;28;20037;-48
2022/04/30 04:34:11;;;;;;;15.18;12.15;;;11.20;99.90;;;;;;5055670;28;20033;-47
2022/04/30 04:36:37;;;;;;;16.45;12.55;;;10.90;99.90;;;;;;5061294;28;20488;-51
2022/04/30 04:39:12;;;;;;;13.85;11.55;;;10.70;99.90;;;;;;5061921;28;20025;-51
2022/04/30 04:41:37;;;;;;;13.57;9.75;;;10.70;99.90;;;;;;5065912;28;20033;-50
2022/04/30 04:44:04;;;;;;;15.77;12.15;;;10.40;99.90;;;;;;5069722;28;20361;-48
2022/04/30 04:46:30;;;;;;;14.90;12.40;;;10.40;99.90;;;;;;5055464;28;20123;-46
2022/04/30 04:48:56;;;;;;;15.07;11.50;;;10.50;99.90;;;;;;5057776;28;20135;-51
2022/04/30 04:51:22;;;;;;;15.20;11.75;;;10.60;99.90;;;;;;5063524;28;20488;-47
2022/04/30 04:53:48;;;;;;;14.65;12.60;;;10.60;99.90;;;;;;5068684;28;20496;-53
2022/04/30 04:56:13;;;;;;;16.55;13.35;;;10.80;99.90;;;;;;5067386;28;20021;-51
2022/04/30 04:58:42;;;;;;;15.25;12.60;;;10.70;99.90;;;;;;5062139;28;20079;-51
2022/04/30 05:01:08;;;;;;;18.70;13.95;;;10.60;99.90;;;;;;5057233;28;20033;-48
2022/04/30 05:03:33;;;;;;;18.60;13.50;;;10.60;99.90;;;;;;5055968;28;20047;-48
2022/04/30 05:05:59;;;;;;;15.18;13.57;;;10.70;99.90;;;;;;5059788;28;20550;-50
2022/04/30 05:08:25;;;;;;;18.55;14.73;;;10.80;99.90;;;;;;5069471;28;20036;-51
2022/04/30 05:10:51;;;;;;;15.70;12.95;;;11.10;99.90;;;;;;5057552;28;20029;-50
2022/04/30 05:13:17;;;;;;;15.25;12.65;;;11.30;99.90;;;;;;5027312;28;20044;-50
2022/04/30 05:15:43;;;;;;;17.95;12.35;;;11.70;99.90;;;;;;5043740;28;20396;-54
2022/04/30 05:18:09;;;;;;;16.95;13.43;;;12.10;99.90;;;;;;5066926;28;20283;-53
2022/04/30 05:20:35;;;;;;;24.80;17.73;;;12.30;99.90;;;;;;5012726;28;20364;-47
2022/04/30 05:23:00;;;;;;;23.45;18.35;;;12.50;99.90;;;;;;5058780;28;20052;-48
2022/04/30 05:25:26;;;;;;;20.23;15.52;;;12.80;99.90;;;;;;5064305;28;20048;-46
2022/04/30 05:27:52;;;;;;;24.23;16.45;;;13.10;99.90;;;;;;5071554;28;20025;-49
2022/04/30 05:30:18;;;;;;;24.40;18.65;;;13.50;99.90;;;;;;5060966;28;20024;-54
2022/04/30 05:32:44;;;;;;;21.80;16.88;;;;;;;;;;5056720;28;20467;-46
2022/04/30 05:35:10;;;;;;;19.02;15.15;;;13.70;99.90;;;;;;5065604;28;20032;-54
2022/04/30 05:37:36;;;;;;;22.52;16.33;;;13.70;99.90;;;;;;5059427;28;20024;-51
2022/04/30 05:40:02;;;;;;;20.90;15.65;;;13.80;99.90;;;;;;5058050;28;20469;-53
2022/04/30 05:42:28;;;;;;;24.70;19.48;;;14.00;99.90;;;;;;5068392;28;20029;-48
2022/04/30 05:44:54;;;;;;;22.55;17.55;;;14.10;99.90;;;;;;5058474;28;20041;-47
2022/04/30 05:47:20;;;;;;;21.23;14.90;;;14.20;99.90;;;;;;5058154;28;20052;-53
2022/04/30 05:49:46;;;;;;;17.75;14.35;;;14.30;99.90;;;;;;5055572;28;20104;-48
2022/04/30 05:52:12;;;;;;;19.75;15.38;;;14.30;99.90;;;;;;5033254;28;20148;-46
2022/04/30 05:54:38;;;;;;;29.38;21.73;;;14.50;99.90;;;;;;5065060;28;20552;-48
2022/04/30 05:57:04;;;;;;;19.88;15.38;;;14.70;99.90;;;;;;5063005;28;20032;-54
2022/04/30 05:59:30;;;;;;;15.30;13.52;;;;;;;;;;5067036;28;20055;-45
2022/04/30 06:01:56;;;;;;;15.07;13.20;;;14.70;99.90;;;;;;5067303;28;20479;-50
2022/04/30 06:04:22;;;;;;;14.88;12.23;;;;;;;;;;5053981;28;20036;-53
2022/04/30 06:06:48;;;;;;;17.08;13.63;;;;;;;;;;5001911;28;20041;-49
2022/04/30 06:09:14;;;;;;;15.90;13.75;;;15.30;99.90;;;;;;5035574;28;20440;-48
2022/04/30 06:11:41;;;;;;;16.75;14.93;;;15.40;99.90;;;;;;5049438;28;20043;-49
2022/04/30 06:14:06;;;;;;;21.58;17.70;;;15.50;99.90;;;;;;5052911;28;20028;-52
2022/04/30 06:16:33;;;;;;;23.65;18.90;;;;;;;;;;5051445;28;20039;-47
2022/04/30 06:18:58;;;;;;;20.65;16.48;;;15.90;99.90;;;;;;5000787;28;20133;-50
2022/04/30 06:21:24;;;;;;;18.48;15.20;;;16.00;99.90;;;;;;5051440;28;20057;-47
2022/04/30 06:23:53;;;;;;;25.48;14.95;;;16.10;99.90;;;;;;5006565;28;20033;-50
2022/04/30 06:26:18;;;;;;;33.35;27.05;;;16.20;99.90;;;;;;5065283;28;20068;-49
2022/04/30 06:28:44;;;;;;;21.77;15.18;;;;;;;;;;5057315;28;20025;-52
2022/04/30 06:31:11;;;;;;;21.17;13.98;;;;;;;;;;5035278;28;20524;-51
2022/04/30 06:33:37;;;;;;;18.67;14.23;;;;;;;;;;5019098;28;20064;-48
2022/04/30 06:36:03;;;;;;;20.98;14.30;;;;;;;;;;5026415;28;20029;-47
2022/04/30 06:38:29;;;;;;;16.70;12.25;;;16.00;99.90;;;;;;5057491;28;20078;-49
2022/04/30 06:40:55;;;;;;;17.83;12.60;;;;;;;;;;5019735;28;20033;-47
2022/04/30 06:43:21;;;;;;;17.60;13.13;;;;;;;;;;5054210;28;20033;-54
2022/04/30 06:45:48;;;;;;;20.25;12.98;;;;;;;;;;5019098;28;20059;-46
2022/04/30 06:48:14;;;;;;;19.73;14.02;;;;;;;;;;5053234;28;20404;-47
2022/04/30 06:50:39;;;;;;;18.02;14.18;;;16.30;99.90;;;;;;5050334;28;20119;-49
2022/04/30 06:58:53;;;;;;;26.92;16.33;;;16.60;99.90;;;;;;5038013;28;20044;-51
2022/04/30 07:01:30;;;;;;;21.70;14.88;;;16.90;99.90;;;;;;5054465;28;20128;-47
2022/04/30 07:04:02;;;;;;;22.52;15.98;;;17.00;99.90;;;;;;5059521;28;20028;-48
2022/04/30 07:06:29;;;;;;;18.20;15.23;;;17.10;99.90;;;;;;5068053;28;20048;-46
2022/04/30 07:08:55;;;;;;;18.20;15.90;;;17.40;99.90;;;;;;5059190;28;20047;-48
2022/04/30 07:11:22;;;;;;;21.48;16.00;;;;;;;;;;5035344;28;20044;-45
2022/04/30 07:13:48;;;;;;;17.95;14.35;;;17.70;99.90;;;;;;5059312;28;20476;-45
2022/04/30 07:16:13;;;;;;;19.58;16.67;;;17.60;99.90;;;;;;5061916;28;20078;-41
2022/04/30 07:18:39;;;;;;;18.75;16.48;;;17.80;99.90;;;;;;5056262;28;20029;-46
2022/04/30 07:21:05;;;;;;;19.30;15.50;;;;;;;;;;5059220;28;20368;-41
2022/04/30 07:23:32;;;;;;;24.48;16.55;;;18.30;99.90;;;;;;5043337;28;20025;-46
2022/04/30 07:25:58;;;;;;;21.05;14.70;;;18.60;99.90;;;;;;5061192;28;20043;-44
2022/04/30 07:28:25;;;;;;;21.38;14.73;;;;;;;;;;5062672;28;20025;-48
2022/04/30 07:30:51;;;;;;;19.13;15.00;;;;;;;;;;5058856;28;20074;-49
2022/04/30 07:33:17;;;;;;;16.48;14.48;;;;;;;;;;5058948;28;20430;-48
2022/04/30 07:35:43;;;;;;;17.15;14.35;;;;;;;;;;5054708;28;20111;-45
2022/04/30 07:38:09;;;;;;;21.77;15.15;;;;;;;;;;5057411;28;20085;-44
2022/04/30 07:40:35;;;;;;;15.57;13.50;;;;;;;;;;5047843;28;20033;-48
2022/04/30 07:43:02;;;;;;;15.05;13.52;;;20.10;99.90;;;;;;5055180;28;20029;-44
2022/04/30 07:45:28;;;;;;;21.50;13.70;;;20.10;99.90;;;;;;5056660;28;20055;-50
2022/04/30 07:47:55;;;;;;;15.73;13.88;;;20.00;99.90;;;;;;5055531;28;20516;-48
2022/04/30 07:50:22;;;;;;;15.60;13.43;;;20.00;99.90;;;;;;5049159;28;20435;-47
2022/04/30 07:52:48;;;;;;;15.90;13.57;;;20.20;99.90;;;;;;5058940;28;20053;-48
2022/04/30 07:55:14;;;;;;;18.13;13.18;;;20.20;99.90;;;;;;5036568;28;20038;-46
2022/04/30 07:57:40;;;;;;;14.18;12.02;;;19.90;99.90;;;;;;5065153;28;20064;-42
2022/04/30 08:00:07;;;;;;;19.00;14.00;;;20.20;99.90;;;;;;5059203;28;20064;-51
2022/04/30 08:02:33;;;;;;;17.13;13.90;;;20.10;99.90;;;;;;5036655;28;20437;-43
2022/04/30 08:05:02;;;;;;;16.95;14.98;;;;;;;;;;5044359;28;20076;-44
2022/04/30 08:07:28;;;;;;;19.27;15.90;;;;;;;;;;5033740;28;20057;-43
2022/04/30 08:09:55;;;;;;;23.30;16.40;;;;;;;;;;5044990;28;20520;-43
2022/04/30 08:12:21;;;;;;;24.95;14.75;;;20.40;99.90;;;;;;5047158;28;20038;-50
2022/04/30 08:14:48;;;;;;;18.17;14.82;;;20.50;99.90;;;;;;5000269;28;20495;-48
2022/04/30 08:17:14;;;;;;;21.85;16.05;;;20.70;99.90;;;;;;5045249;28;20032;-48
2022/04/30 08:19:40;;;;;;;19.20;16.00;;;20.60;99.90;;;;;;4998121;28;20041;-42
2022/04/30 08:22:06;;;;;;;20.55;16.60;;;;;;;;;;5048237;28;20060;-45
2022/04/30 08:24:32;;;;;;;22.70;17.58;;;20.90;99.90;;;;;;5021642;28;20029;-47
2022/04/30 08:26:59;;;;;;;18.00;16.10;;;21.00;99.90;;;;;;5042916;28;20518;-48
2022/04/30 08:29:28;;;;;;;20.63;16.85;;;21.50;99.90;;;;;;5038602;28;20028;-49
2022/04/30 08:31:55;;;;;;;29.13;18.40;;;21.90;99.90;;;;;;5042295;28;20029;-45
2022/04/30 08:34:21;;;;;;;30.35;19.67;;;;;;;;;;5035787;28;20107;-46
2022/04/30 08:36:47;;;;;;;19.05;11.98;;;21.90;99.90;;;;;;5039353;28;20133;-45
2022/04/30 08:39:13;;;;;;;21.75;10.25;;;;;;;;;;5045688;28;20401;-52
2022/04/30 08:41:42;;;;;;;9.82;8.48;;;21.60;99.90;;;;;;5058414;28;20039;-44
2022/04/30 08:44:12;;;;;;;13.15;9.15;;;21.80;99.90;;;;;;5057768;28;20029;-46
2022/04/30 08:46:39;;;;;;;21.70;11.77;;;21.50;99.90;;;;;;5058166;28;20033;-46
2022/04/30 08:49:06;;;;;;;16.90;12.48;;;21.40;99.90;;;;;;5066805;28;20025;-44
2022/04/30 08:51:32;;;;;;;16.67;13.65;;;21.50;99.90;;;;;;5057910;28;20085;-44
2022/04/30 08:53:58;;;;;;;18.77;15.15;;;21.90;99.90;;;;;;5029831;28;20558;-47
2022/04/30 08:56:24;;;;;;;21.67;15.82;;;22.30;99.90;;;;;;5050898;28;20489;-47
2022/04/30 08:58:51;;;;;;;20.25;16.55;;;;;;;;;;5065911;28;20029;-47
2022/04/30 09:01:17;;;;;;;20.77;14.20;;;;;;;;;;5059784;28;20033;-46
2022/04/30 09:03:46;;;;;;;16.77;11.00;;;22.60;99.90;;;;;;5058653;28;20033;-45
2022/04/30 09:06:17;;;;;;;14.55;11.13;;;;;;;;;;5061308;28;20032;-45
2022/04/30 09:08:49;;;;;;;13.95;9.07;;;22.60;99.90;;;;;;5057006;28;20530;-45
2022/04/30 09:11:15;;;;;;;15.25;9.93;;;22.20;99.90;;;;;;5058849;28;20107;-50
2022/04/30 09:13:46;;;;;;;11.13;7.55;;;22.10;99.90;;;;;;5063249;28;20464;-47
2022/04/30 09:16:23;;;;;;;11.10;6.63;;;22.10;99.90;;;;;;5061875;28;20033;-45
2022/04/30 09:18:50;;;;;;;10.73;7.20;;;22.00;99.90;;;;;;5065236;28;20396;-47
2022/04/30 09:21:17;;;;;;;9.68;5.60;;;22.40;99.90;;;;;;5066382;28;20021;-45
2022/04/30 09:23:44;;;;;;;5.30;4.57;;;22.60;99.90;;;;;;5060579;28;20047;-44
2022/04/30 09:26:10;;;;;;;7.70;4.82;;;22.80;99.90;;;;;;5061071;28;20045;-45
2022/04/30 09:28:38;;;;;;;6.15;4.15;;;;;;;;;;5062336;28;20035;-46
2022/04/30 09:31:11;;;;;;;6.85;4.90;;;23.20;99.90;;;;;;5065868;28;20507;-45
2022/04/30 09:33:39;;;;;;;5.35;4.20;;;;;;;;;;5056302;28;20033;-45
2022/04/30 09:38:51;;;;;;;7.18;4.63;;;;;;;;;;5058538;28;20035;-44
2022/04/30 09:41:24;;;;;;;6.45;4.40;;;;;;;;;;5073307;28;20050;-46
2022/04/30 09:44:00;;;;;;;5.45;4.65;;;;;;;;;;5064979;28;20051;-45
2022/04/30 09:46:26;;;;;;;5.85;4.40;;;;;;;;;;5063014;28;20037;-48
2022/04/30 09:54:22;;;;;;;12.82;5.80;;;24.20;99.90;;;;;;5061453;28;20052;-47
2022/04/30 09:56:51;;;;;;;6.90;5.60;;;24.20;99.90;;;;;;5057392;28;20381;-45
2022/04/30 09:59:18;;;;;;;5.95;5.05;;;24.00;99.90;;;;;;5055911;28;20425;-47
2022/04/30 10:01:47;;;;;;;5.40;4.75;;;24.10;99.90;;;;;;5069068;28;20372;-48
2022/04/30 10:04:15;;;;;;;6.00;4.40;;;23.90;99.90;;;;;;5062130;28;20036;-46
2022/04/30 10:06:49;;;;;;;6.90;4.20;;;24.20;99.90;;;;;;5039133;28;20033;-45
2022/04/30 10:09:23;;;;;;;5.43;4.00;;;24.40;99.90;;;;;;5061775;28;20025;-47
2022/04/30 10:12:03;;;;;;;7.68;4.15;;;23.50;99.90;;;;;;5057697;28;20047;-47
2022/04/30 10:15:07;;;;;;;4.20;3.50;;;23.40;99.90;;;;;;5071221;28;20048;-45
2022/04/30 10:17:39;;;;;;;4.85;4.10;;;24.10;99.90;;;;;;5053048;28;20032;-42
2022/04/30 10:20:29;;;;;;;3.97;3.53;;;;;;;;;;5064999;28;20029;-43
2022/04/30 10:22:54;;;;;;;5.80;4.20;;;;;;;;;;5068036;28;20024;-46
2022/04/30 10:25:43;;;;;;;4.60;3.72;;;24.60;99.90;;;;;;5061041;28;20044;-43
2022/04/30 10:28:15;;;;;;;3.45;2.95;;;;;;;;;;5060438;28;20039;-46
2022/04/30 10:30:42;;;;;;;;;;;24.10;99.90;;;;;;5062578;28;20473;-46
2022/04/30 10:33:09;;;;;;;6.57;3.70;;;24.10;99.90;;;;;;5065359;28;19904;-45
2022/04/30 10:35:40;;;;;;;5.55;3.85;;;24.10;99.90;;;;;;5062973;28;20021;-47
2022/04/30 10:38:20;;;;;;;5.28;3.75;;;24.40;99.90;;;;;;5060503;28;20024;-45
2022/04/30 10:40:47;;;;;;;6.93;4.15;;;24.10;99.90;;;;;;5062062;28;20029;-46
2022/04/30 10:43:28;;;;;;;6.88;4.00;;;24.10;99.90;;;;;;5058686;28;20078;-43
2022/04/30 10:45:57;;;;;;;5.50;4.88;;;23.70;99.90;;;;;;5064666;28;20048;-45
2022/04/30 10:48:24;;;;;;;4.70;4.05;;;23.60;99.90;;;;;;5078596;28;20041;-45
2022/04/30 10:51:00;;;;;;;4.80;4.35;;;23.70;99.90;;;;;;5061259;28;20025;-43
2022/04/30 10:53:28;;;;;;;5.13;4.47;;;23.60;99.90;;;;;;5052804;28;20123;-47
2022/04/30 10:55:55;;;;;;;5.07;4.30;;;24.10;99.90;;;;;;5058995;28;20036;-45
2022/04/30 10:58:34;;;;;;;6.20;4.60;;;24.10;99.90;;;;;;5061488;28;20029;-47
2022/04/30 11:01:14;;;;;;;5.03;4.53;;;23.50;99.90;;;;;;5059566;28;20029;-44
2022/04/30 11:03:50;;;;;;;4.70;4.13;;;;;;;;;;5060562;28;20563;-43
2022/04/30 11:06:21;;;;;;;5.10;4.10;;;23.90;99.90;;;;;;5015585;28;20530;-44
2022/04/30 11:08:59;;;;;;;4.78;4.20;;;;;;;;;;5033511;28;20041;-46
2022/04/30 11:11:25;;;;;;;4.78;4.28;;;;;;;;;;5067058;28;20064;-46
2022/04/30 11:14:03;;;;;;;6.65;4.90;;;24.40;99.90;;;;;;5068175;28;20032;-48
2022/04/30 11:16:36;;;;;;;5.53;3.83;;;24.40;99.90;;;;;;5029073;28;20401;-47
2022/04/30 11:19:08;;;;;;;5.45;4.40;;;;;;;;;;5082549;28;20037;-45
2022/04/30 11:21:34;;;;;;;6.07;5.15;;;;;;;;;;5068432;28;20157;-44
2022/04/30 11:24:01;;;;;;;8.20;5.18;;;25.30;99.90;;;;;;5058881;28;20037;-47
2022/04/30 11:26:29;;;;;;;6.03;4.78;;;25.00;99.90;;;;;;5058885;28;20056;-45
2022/04/30 11:28:55;;;;;;;6.28;5.28;;;24.60;99.90;;;;;;5068801;28;20033;-48
2022/04/30 11:31:21;;;;;;;6.38;5.07;;;24.80;99.90;;;;;;5061268;28;20033;-47
2022/04/30 11:33:47;;;;;;;5.72;4.40;;;25.30;99.90;;;;;;5036576;28;20063;-45
2022/04/30 11:36:13;;;;;;;5.90;4.97;;;25.70;99.30;;;;;;5064186;28;20487;-45
2022/04/30 11:38:40;;;;;;;6.35;4.50;;;26.50;98.30;;;;;;5029358;28;20090;-46
2022/04/30 11:41:07;;;;;;;6.03;5.28;;;;;;;;;;5059770;28;20039;-47
2022/04/30 11:43:33;;;;;;;11.43;6.20;;;25.50;96.10;;;;;;5056524;28;20091;-47
2022/04/30 11:46:00;;;;;;;8.18;5.88;;;25.30;97.10;;;;;;5060609;28;20477;-44
2022/04/30 11:48:31;;;;;;;6.75;5.22;;;25.20;97.20;;;;;;5056824;28;20090;-46
2022/04/30 11:50:57;;;;;;;5.28;4.72;;;24.70;95.90;;;;;;5058299;28;20035;-47
2022/04/30 11:53:23;;;;;;;7.30;4.93;;;24.60;96.20;;;;;;5056414;28;20081;-48
2022/04/30 11:55:50;;;;;;;4.72;4.22;;;24.90;96.40;;;;;;5016632;28;20087;-44
2022/04/30 11:58:15;;;;;;;7.85;4.95;;;24.50;96.50;;;;;;5061670;28;20116;-44
2022/04/30 12:00:41;;;;;;;6.88;5.47;;;24.20;96.50;;;;;;5062316;28;20103;-45
2022/04/30 12:03:07;;;;;;;5.80;4.57;;;24.10;96.70;;;;;;5065056;28;20036;-46
2022/04/30 12:05:32;;;;;;;7.00;6.07;;;23.60;97.70;;;;;;5057653;28;20032;-46
2022/04/30 12:08:01;;;;;;;7.22;5.60;;;23.80;97.90;;;;;;5056096;28;20029;-45
2022/04/30 12:10:27;;;;;;;6.80;5.80;;;24.20;98.20;;;;;;5058204;28;20033;-46
2022/04/30 12:12:54;;;;;;;5.68;5.00;;;24.60;97.10;;;;;;5060474;28;20090;-46
2022/04/30 12:15:27;;;;;;;6.22;5.20;;;24.50;97.80;;;;;;5067321;28;20488;-44
2022/04/30 12:26:38;;;;;;;6.65;5.60;;;24.40;97.10;;;;;;5061802;28;20392;-45
2022/04/30 12:29:19;;;;;;;6.82;5.40;;;23.90;96.50;;;;;;5046485;28;20131;-46
2022/04/30 12:31:51;;;;;;;8.10;5.30;;;23.60;96.90;;;;;;5047402;28;20495;-46
2022/04/30 12:34:27;;;;;;;9.30;6.15;;;22.90;97.50;;;;;;5044890;28;20041;-46
2022/04/30 12:36:58;;;;;;;6.18;5.10;;;22.80;98.70;;;;;;5050503;28;20029;-44
2022/04/30 12:39:25;;;;;;;6.18;5.45;;;22.50;97.70;;;;;;4968143;28;20037;-46
2022/04/30 12:41:52;;;;;;;6.70;5.63;;;22.70;97.90;;;;;;5046627;28;20535;-46
2022/04/30 12:44:18;;;;;;;7.47;5.35;;;22.70;98.20;;;;;;5045806;28;20041;-46
2022/04/30 12:46:45;;;;;;;5.90;5.35;;;22.60;98.40;;;;;;5046671;28;20025;-45
2022/04/30 12:49:12;;;;;;;6.70;5.45;;;22.60;98.30;;;;;;5030793;28;20033;-44
2022/04/30 12:51:42;;;;;;;6.90;5.40;;;22.50;98.50;;;;;;5045494;28;20117;-48
2022/04/30 12:54:12;;;;;;;6.10;5.10;;;22.70;98.80;;;;;;5047510;28;20053;-46
2022/04/30 12:56:39;;;;;;;5.38;4.88;;;22.50;97.90;;;;;;5051218;28;20029;-45
2022/04/30 12:59:05;;;;;;;7.82;5.10;;;22.50;98.60;;;;;;5053683;28;20527;-48
2022/04/30 13:01:33;;;;;;;6.45;5.03;;;22.80;98.50;;;;;;5069871;28;20103;-46
2022/04/30 13:03:59;;;;;;;8.30;4.75;;;23.40;99.30;;;;;;5065434;28;20115;-45
2022/04/30 13:06:24;;;;;;;4.90;4.47;;;23.60;97.70;;;;;;5059228;28;20120;-47
2022/04/30 13:14:20;;;;;;;9.73;5.72;;;23.10;98.80;;;;;;5062133;28;20388;-47
2022/04/30 13:16:46;;;;;;;6.97;6.22;;;22.70;99.50;;;;;;5062618;28;20029;-43
2022/04/30 13:19:11;;;;;;;7.40;5.10;;;23.00;99.70;;;;;;5070187;28;20033;-46
2022/04/30 13:21:37;;;;;;;7.18;5.38;;;22.90;98.40;;;;;;5036376;28;20120;-46
2022/04/30 13:24:04;;;;;;;5.75;5.25;;;23.20;98.90;;;;;;5049769;28;20058;-45
2022/04/30 13:26:31;;;;;;;7.32;5.20;;;23.60;97.90;;;;;;5003314;28;20067;-45
2022/04/30 13:28:56;;;;;;;5.97;5.07;;;24.00;97.20;;;;;;5059944;28;20037;-47
2022/04/30 13:31:22;;;;;;;5.38;4.65;;;24.40;97.30;;;;;;5054291;28;20376;-49
2022/04/30 13:33:48;;;;;;;5.35;4.85;;;24.60;97.10;;;;;;5051513;28;20044;-45
2022/04/30 13:36:14;;;;;;;6.55;4.55;;;24.10;97.30;;;;;;5053186;28;20520;-45
2022/04/30 13:38:42;;;;;;;7.03;5.20;;;23.80;96.50;;;;;;5054658;28;20032;-45
2022/04/30 13:41:08;;;;;;;6.40;5.05;;;23.60;96.80;;;;;;5055038;28;20055;-49
2022/04/30 13:43:34;;;;;;;6.15;5.13;;;23.10;98.00;;;;;;5054609;28;20465;-44
2022/04/30 13:46:00;;;;;;;8.20;5.68;;;23.00;99.90;;;;;;5054530;28;20044;-49
2022/04/30 13:48:26;;;;;;;6.63;5.18;;;23.40;99.90;;;;;;5061313;28;20032;-50